Queenstown, New Zealand
Current Conditions -  °F | °C
As of 6:30 PM on Thursday 23 Oct 2014 (Local Time) from NZCH Reporting Station
Clear Clear  
Wind Chill: 64°   Ceiling: Unl
Heat Index: 64°   Visibility: 6mi
Dew Point: 36°   Wind: 20mph
Humidity: 34%   Direction: 290°WNW
Pressure: 29.59"   Gusts: NA
Location:  45.03°S, 168.66°E
Report Text: NZCH 230630Z AUTO 29017KT 9999 NCD 18/02 Q1002 NOSIG
Loading
Personal Weather Stations






























Interactive Weather Map
Tropical Storm Tracking
New forecast layout! Learn more

10-Day Weather Forecast

Advertisements
Track Severe Weather on mobile